sensor_id;sensor_type;location;lat;lon;timestamp;P1;durP1;ratioP1;P2;durP2;ratioP2
81934;SDS011;71405;47.674;-2.050;2023-12-20T00:00:40;5.35;;;1.85;;
81934;SDS011;71405;47.674;-2.050;2023-12-20T00:03:06;5.03;;;1.48;;
81934;SDS011;71405;47.674;-2.050;2023-12-20T00:05:31;5.95;;;1.63;;
81934;SDS011;71405;47.674;-2.050;2023-12-20T00:07:58;6.00;;;1.60;;
81934;SDS011;71405;47.674;-2.050;2023-12-20T00:10:24;5.00;;;1.73;;
81934;SDS011;71405;47.674;-2.050;2023-12-20T00:12:49;3.70;;;1.42;;
81934;SDS011;71405;47.674;-2.050;2023-12-20T00:15:15;3.85;;;1.40;;
81934;SDS011;71405;47.674;-2.050;2023-12-20T00:17:40;4.97;;;1.55;;
81934;SDS011;71405;47.674;-2.050;2023-12-20T00:20:06;4.28;;;1.55;;
81934;SDS011;71405;47.674;-2.050;2023-12-20T00:22:32;5.30;;;1.60;;
81934;SDS011;71405;47.674;-2.050;2023-12-20T00:24:58;5.07;;;1.80;;
81934;SDS011;71405;47.674;-2.050;2023-12-20T00:27:23;4.95;;;1.70;;
81934;SDS011;71405;47.674;-2.050;2023-12-20T00:29:49;4.78;;;1.67;;
81934;SDS011;71405;47.674;-2.050;2023-12-20T00:32:15;4.55;;;1.40;;
81934;SDS011;71405;47.674;-2.050;2023-12-20T00:34:42;5.25;;;1.80;;
81934;SDS011;71405;47.674;-2.050;2023-12-20T00:37:08;5.75;;;1.85;;
81934;SDS011;71405;47.674;-2.050;2023-12-20T00:39:33;6.13;;;1.55;;
81934;SDS011;71405;47.674;-2.050;2023-12-20T00:41:59;5.65;;;1.65;;
81934;SDS011;71405;47.674;-2.050;2023-12-20T00:44:25;4.32;;;1.52;;
81934;SDS011;71405;47.674;-2.050;2023-12-20T00:46:51;5.05;;;1.67;;
81934;SDS011;71405;47.674;-2.050;2023-12-20T00:49:17;3.17;;;1.30;;
81934;SDS011;71405;47.674;-2.050;2023-12-20T00:51:42;5.22;;;1.52;;
81934;SDS011;71405;47.674;-2.050;2023-12-20T00:54:08;4.32;;;1.52;;
81934;SDS011;71405;47.674;-2.050;2023-12-20T00:56:34;4.30;;;1.77;;
81934;SDS011;71405;47.674;-2.050;2023-12-20T00:59:00;4.25;;;1.75;;
81934;SDS011;71405;47.674;-2.050;2023-12-20T01:01:25;5.47;;;1.90;;
81934;SDS011;71405;47.674;-2.050;2023-12-20T01:03:51;8.60;;;3.85;;
81934;SDS011;71405;47.674;-2.050;2023-12-20T01:06:17;8.20;;;2.92;;
81934;SDS011;71405;47.674;-2.050;2023-12-20T01:08:43;5.88;;;2.22;;
81934;SDS011;71405;47.674;-2.050;2023-12-20T01:11:09;5.82;;;2.15;;
81934;SDS011;71405;47.674;-2.050;2023-12-20T01:13:34;5.20;;;2.10;;
81934;SDS011;71405;47.674;-2.050;2023-12-20T01:16:00;4.85;;;2.10;;
81934;SDS011;71405;47.674;-2.050;2023-12-20T01:18:26;4.40;;;1.83;;
81934;SDS011;71405;47.674;-2.050;2023-12-20T01:20:52;6.05;;;2.20;;
81934;SDS011;71405;47.674;-2.050;2023-12-20T01:23:17;6.07;;;2.03;;
81934;SDS011;71405;47.674;-2.050;2023-12-20T01:25:43;4.65;;;1.80;;
81934;SDS011;71405;47.674;-2.050;2023-12-20T01:28:09;5.30;;;2.50;;
81934;SDS011;71405;47.674;-2.050;2023-12-20T01:30:34;6.60;;;2.75;;
81934;SDS011;71405;47.674;-2.050;2023-12-20T01:33:00;7.20;;;2.80;;
81934;SDS011;71405;47.674;-2.050;2023-12-20T01:35:29;7.38;;;2.95;;
81934;SDS011;71405;47.674;-2.050;2023-12-20T01:37:54;7.28;;;2.88;;
81934;SDS011;71405;47.674;-2.050;2023-12-20T01:40:23;7.68;;;2.28;;
81934;SDS011;71405;47.674;-2.050;2023-12-20T01:42:59;7.82;;;2.42;;
81934;SDS011;71405;47.674;-2.050;2023-12-20T01:45:37;6.55;;;2.33;;
81934;SDS011;71405;47.674;-2.050;2023-12-20T01:48:03;5.93;;;2.10;;
81934;SDS011;71405;47.674;-2.050;2023-12-20T01:50:30;5.03;;;1.88;;
81934;SDS011;71405;47.674;-2.050;2023-12-20T01:52:57;5.78;;;2.33;;
81934;SDS011;71405;47.674;-2.050;2023-12-20T01:55:27;5.85;;;2.13;;
81934;SDS011;71405;47.674;-2.050;2023-12-20T01:57:56;7.73;;;2.33;;
81934;SDS011;71405;47.674;-2.050;2023-12-20T02:00:23;5.78;;;2.30;;
81934;SDS011;71405;47.674;-2.050;2023-12-20T02:02:51;4.63;;;2.10;;
81934;SDS011;71405;47.674;-2.050;2023-12-20T02:05:18;4.88;;;2.08;;
81934;SDS011;71405;47.674;-2.050;2023-12-20T02:07:45;6.32;;;2.30;;
81934;SDS011;71405;47.674;-2.050;2023-12-20T02:10:10;5.20;;;1.85;;
81934;SDS011;71405;47.674;-2.050;2023-12-20T02:12:36;4.40;;;1.67;;
81934;SDS011;71405;47.674;-2.050;2023-12-20T02:15:02;5.10;;;2.03;;
81934;SDS011;71405;47.674;-2.050;2023-12-20T02:17:28;7.53;;;2.10;;
81934;SDS011;71405;47.674;-2.050;2023-12-20T02:19:55;5.75;;;1.90;;
81934;SDS011;71405;47.674;-2.050;2023-12-20T02:22:20;6.15;;;1.90;;
81934;SDS011;71405;47.674;-2.050;2023-12-20T02:24:46;4.57;;;1.80;;
81934;SDS011;71405;47.674;-2.050;2023-12-20T02:27:12;4.85;;;1.65;;
81934;SDS011;71405;47.674;-2.050;2023-12-20T02:29:37;5.70;;;2.10;;
81934;SDS011;71405;47.674;-2.050;2023-12-20T02:32:03;4.35;;;1.70;;
81934;SDS011;71405;47.674;-2.050;2023-12-20T02:34:29;4.70;;;1.80;;
81934;SDS011;71405;47.674;-2.050;2023-12-20T02:36:54;5.72;;;1.85;;
81934;SDS011;71405;47.674;-2.050;2023-12-20T02:39:20;3.78;;;1.80;;
81934;SDS011;71405;47.674;-2.050;2023-12-20T02:41:47;4.63;;;1.75;;
81934;SDS011;71405;47.674;-2.050;2023-12-20T02:44:13;4.70;;;1.75;;
81934;SDS011;71405;47.674;-2.050;2023-12-20T02:46:39;4.55;;;2.05;;
81934;SDS011;71405;47.674;-2.050;2023-12-20T02:49:05;5.45;;;1.98;;
81934;SDS011;71405;47.674;-2.050;2023-12-20T02:51:31;5.28;;;1.70;;
81934;SDS011;71405;47.674;-2.050;2023-12-20T02:53:57;4.35;;;1.85;;
81934;SDS011;71405;47.674;-2.050;2023-12-20T02:56:22;3.65;;;1.50;;
81934;SDS011;71405;47.674;-2.050;2023-12-20T02:58:48;5.03;;;1.85;;
81934;SDS011;71405;47.674;-2.050;2023-12-20T03:01:14;5.10;;;1.80;;
81934;SDS011;71405;47.674;-2.050;2023-12-20T03:03:39;4.57;;;1.65;;
81934;SDS011;71405;47.674;-2.050;2023-12-20T03:06:05;3.90;;;1.63;;
81934;SDS011;71405;47.674;-2.050;2023-12-20T03:08:31;4.57;;;1.67;;
81934;SDS011;71405;47.674;-2.050;2023-12-20T03:10:56;4.20;;;1.77;;
81934;SDS011;71405;47.674;-2.050;2023-12-20T03:13:24;4.70;;;1.60;;
81934;SDS011;71405;47.674;-2.050;2023-12-20T03:15:50;4.95;;;1.80;;
81934;SDS011;71405;47.674;-2.050;2023-12-20T03:18:15;4.35;;;1.75;;
81934;SDS011;71405;47.674;-2.050;2023-12-20T03:20:41;4.43;;;1.75;;
81934;SDS011;71405;47.674;-2.050;2023-12-20T03:23:07;6.85;;;2.15;;
81934;SDS011;71405;47.674;-2.050;2023-12-20T03:25:33;4.32;;;1.73;;
81934;SDS011;71405;47.674;-2.050;2023-12-20T03:27:58;4.65;;;1.65;;
81934;SDS011;71405;47.674;-2.050;2023-12-20T03:30:24;5.20;;;1.52;;
81934;SDS011;71405;47.674;-2.050;2023-12-20T03:32:50;6.00;;;1.85;;
81934;SDS011;71405;47.674;-2.050;2023-12-20T03:35:15;4.50;;;1.70;;
81934;SDS011;71405;47.674;-2.050;2023-12-20T03:37:41;5.10;;;1.80;;
81934;SDS011;71405;47.674;-2.050;2023-12-20T03:40:07;5.30;;;1.80;;
81934;SDS011;71405;47.674;-2.050;2023-12-20T03:42:32;5.50;;;1.80;;
81934;SDS011;71405;47.674;-2.050;2023-12-20T03:44:58;4.60;;;1.60;;
81934;SDS011;71405;47.674;-2.050;2023-12-20T03:47:24;4.72;;;1.65;;
81934;SDS011;71405;47.674;-2.050;2023-12-20T03:49:49;3.70;;;1.55;;
81934;SDS011;71405;47.674;-2.050;2023-12-20T03:52:15;4.78;;;1.50;;
81934;SDS011;71405;47.674;-2.050;2023-12-20T03:54:41;4.78;;;1.90;;
81934;SDS011;71405;47.674;-2.050;2023-12-20T03:57:09;5.13;;;1.63;;
81934;SDS011;71405;47.674;-2.050;2023-12-20T03:59:35;5.15;;;1.90;;
81934;SDS011;71405;47.674;-2.050;2023-12-20T04:02:04;5.18;;;1.77;;
81934;SDS011;71405;47.674;-2.050;2023-12-20T04:04:30;4.03;;;1.52;;
81934;SDS011;71405;47.674;-2.050;2023-12-20T04:06:55;3.40;;;1.60;;
81934;SDS011;71405;47.674;-2.050;2023-12-20T04:09:21;5.32;;;1.65;;
81934;SDS011;71405;47.674;-2.050;2023-12-20T04:11:47;4.47;;;1.48;;
81934;SDS011;71405;47.674;-2.050;2023-12-20T04:14:12;3.75;;;1.40;;
81934;SDS011;71405;47.674;-2.050;2023-12-20T04:16:38;4.22;;;1.58;;
81934;SDS011;71405;47.674;-2.050;2023-12-20T04:19:04;4.28;;;1.73;;
81934;SDS011;71405;47.674;-2.050;2023-12-20T04:21:30;4.22;;;1.70;;
81934;SDS011;71405;47.674;-2.050;2023-12-20T04:23:55;5.20;;;1.73;;
81934;SDS011;71405;47.674;-2.050;2023-12-20T04:26:21;3.92;;;1.48;;
81934;SDS011;71405;47.674;-2.050;2023-12-20T04:28:47;4.47;;;1.95;;
81934;SDS011;71405;47.674;-2.050;2023-12-20T04:31:12;4.18;;;1.55;;
81934;SDS011;71405;47.674;-2.050;2023-12-20T04:33:38;4.03;;;1.65;;
81934;SDS011;71405;47.674;-2.050;2023-12-20T04:36:04;4.65;;;2.00;;
81934;SDS011;71405;47.674;-2.050;2023-12-20T04:38:30;4.03;;;1.60;;
81934;SDS011;71405;47.674;-2.050;2023-12-20T04:40:55;4.03;;;1.45;;
81934;SDS011;71405;47.674;-2.050;2023-12-20T04:43:21;4.25;;;1.67;;
81934;SDS011;71405;47.674;-2.050;2023-12-20T04:45:47;3.95;;;1.50;;
81934;SDS011;71405;47.674;-2.050;2023-12-20T04:48:13;2.95;;;1.38;;
81934;SDS011;71405;47.674;-2.050;2023-12-20T04:50:38;4.57;;;1.60;;
81934;SDS011;71405;47.674;-2.050;2023-12-20T04:53:04;4.18;;;1.40;;
81934;SDS011;71405;47.674;-2.050;2023-12-20T04:55:30;5.20;;;1.75;;
81934;SDS011;71405;47.674;-2.050;2023-12-20T04:57:55;4.43;;;1.60;;
81934;SDS011;71405;47.674;-2.050;2023-12-20T05:00:21;3.30;;;1.50;;
81934;SDS011;71405;47.674;-2.050;2023-12-20T05:02:47;4.57;;;1.52;;
81934;SDS011;71405;47.674;-2.050;2023-12-20T05:05:13;5.13;;;1.42;;
81934;SDS011;71405;47.674;-2.050;2023-12-20T05:07:40;5.15;;;1.70;;
81934;SDS011;71405;47.674;-2.050;2023-12-20T05:10:06;3.63;;;1.40;;
81934;SDS011;71405;47.674;-2.050;2023-12-20T05:12:33;4.57;;;1.65;;
81934;SDS011;71405;47.674;-2.050;2023-12-20T05:14:59;2.90;;;1.20;;
81934;SDS011;71405;47.674;-2.050;2023-12-20T05:17:25;3.20;;;1.50;;
81934;SDS011;71405;47.674;-2.050;2023-12-20T05:19:51;3.03;;;1.17;;
81934;SDS011;71405;47.674;-2.050;2023-12-20T05:22:17;3.88;;;1.50;;
81934;SDS011;71405;47.674;-2.050;2023-12-20T05:24:44;3.78;;;1.40;;
81934;SDS011;71405;47.674;-2.050;2023-12-20T05:27:09;3.38;;;1.35;;
81934;SDS011;71405;47.674;-2.050;2023-12-20T05:29:36;3.42;;;1.50;;
81934;SDS011;71405;47.674;-2.050;2023-12-20T05:32:02;2.58;;;1.00;;
81934;SDS011;71405;47.674;-2.050;2023-12-20T05:34:29;4.32;;;1.48;;
81934;SDS011;71405;47.674;-2.050;2023-12-20T05:36:55;3.72;;;1.52;;
81934;SDS011;71405;47.674;-2.050;2023-12-20T05:39:21;3.35;;;1.30;;
81934;SDS011;71405;47.674;-2.050;2023-12-20T05:41:47;3.58;;;1.40;;
81934;SDS011;71405;47.674;-2.050;2023-12-20T05:44:13;2.70;;;1.20;;
81934;SDS011;71405;47.674;-2.050;2023-12-20T05:46:38;3.15;;;1.35;;
81934;SDS011;71405;47.674;-2.050;2023-12-20T05:49:05;2.70;;;1.10;;
81934;SDS011;71405;47.674;-2.050;2023-12-20T05:51:30;4.03;;;1.40;;
81934;SDS011;71405;47.674;-2.050;2023-12-20T05:53:56;3.60;;;1.27;;
81934;SDS011;71405;47.674;-2.050;2023-12-20T05:56:22;3.03;;;1.20;;
81934;SDS011;71405;47.674;-2.050;2023-12-20T05:58:47;3.65;;;1.40;;
81934;SDS011;71405;47.674;-2.050;2023-12-20T06:01:16;3.95;;;1.50;;
81934;SDS011;71405;47.674;-2.050;2023-12-20T06:03:42;3.90;;;1.48;;
81934;SDS011;71405;47.674;-2.050;2023-12-20T06:06:10;3.17;;;1.33;;
81934;SDS011;71405;47.674;-2.050;2023-12-20T06:08:37;3.83;;;1.40;;
81934;SDS011;71405;47.674;-2.050;2023-12-20T06:11:03;4.07;;;1.42;;
81934;SDS011;71405;47.674;-2.050;2023-12-20T06:13:30;3.40;;;1.23;;
81934;SDS011;71405;47.674;-2.050;2023-12-20T06:15:56;3.65;;;1.40;;
81934;SDS011;71405;47.674;-2.050;2023-12-20T06:18:22;6.32;;;1.25;;
81934;SDS011;71405;47.674;-2.050;2023-12-20T06:20:48;3.97;;;1.75;;
81934;SDS011;71405;47.674;-2.050;2023-12-20T06:23:13;3.30;;;1.30;;
81934;SDS011;71405;47.674;-2.050;2023-12-20T06:25:39;4.72;;;1.50;;
81934;SDS011;71405;47.674;-2.050;2023-12-20T06:28:05;4.53;;;1.52;;
81934;SDS011;71405;47.674;-2.050;2023-12-20T06:30:31;3.25;;;1.38;;
81934;SDS011;71405;47.674;-2.050;2023-12-20T06:32:57;3.67;;;1.52;;
81934;SDS011;71405;47.674;-2.050;2023-12-20T06:35:23;5.35;;;1.70;;
81934;SDS011;71405;47.674;-2.050;2023-12-20T06:37:49;6.85;;;2.08;;
81934;SDS011;71405;47.674;-2.050;2023-12-20T06:40:15;5.60;;;1.88;;
81934;SDS011;71405;47.674;-2.050;2023-12-20T06:42:41;4.88;;;1.52;;
81934;SDS011;71405;47.674;-2.050;2023-12-20T06:45:07;6.85;;;2.15;;
81934;SDS011;71405;47.674;-2.050;2023-12-20T06:47:33;3.38;;;1.50;;
81934;SDS011;71405;47.674;-2.050;2023-12-20T06:49:58;4.25;;;1.50;;
81934;SDS011;71405;47.674;-2.050;2023-12-20T06:52:24;6.18;;;2.25;;
81934;SDS011;71405;47.674;-2.050;2023-12-20T06:54:50;3.38;;;1.38;;
81934;SDS011;71405;47.674;-2.050;2023-12-20T06:57:16;3.35;;;1.50;;
81934;SDS011;71405;47.674;-2.050;2023-12-20T06:59:41;3.92;;;1.48;;
81934;SDS011;71405;47.674;-2.050;2023-12-20T07:02:08;7.25;;;2.30;;
81934;SDS011;71405;47.674;-2.050;2023-12-20T07:04:34;12.90;;;4.85;;
81934;SDS011;71405;47.674;-2.050;2023-12-20T07:07:03;13.77;;;4.47;;
81934;SDS011;71405;47.674;-2.050;2023-12-20T07:09:29;4.85;;;1.70;;
81934;SDS011;71405;47.674;-2.050;2023-12-20T07:11:54;5.50;;;1.83;;
81934;SDS011;71405;47.674;-2.050;2023-12-20T07:14:20;3.72;;;1.30;;
81934;SDS011;71405;47.674;-2.050;2023-12-20T07:16:46;4.82;;;1.73;;
81934;SDS011;71405;47.674;-2.050;2023-12-20T07:19:12;5.43;;;1.90;;
81934;SDS011;71405;47.674;-2.050;2023-12-20T07:21:38;10.30;;;2.88;;
81934;SDS011;71405;47.674;-2.050;2023-12-20T07:24:03;18.50;;;5.05;;
81934;SDS011;71405;47.674;-2.050;2023-12-20T07:26:29;30.60;;;9.43;;
81934;SDS011;71405;47.674;-2.050;2023-12-20T07:28:55;26.17;;;9.48;;
81934;SDS011;71405;47.674;-2.050;2023-12-20T07:31:21;29.83;;;9.25;;
81934;SDS011;71405;47.674;-2.050;2023-12-20T07:33:46;19.40;;;6.78;;
81934;SDS011;71405;47.674;-2.050;2023-12-20T07:36:12;22.02;;;7.25;;
81934;SDS011;71405;47.674;-2.050;2023-12-20T07:38:38;23.85;;;7.05;;
81934;SDS011;71405;47.674;-2.050;2023-12-20T07:41:04;23.33;;;6.85;;
81934;SDS011;71405;47.674;-2.050;2023-12-20T07:43:30;17.58;;;6.13;;
81934;SDS011;71405;47.674;-2.050;2023-12-20T07:45:55;16.80;;;5.82;;
81934;SDS011;71405;47.674;-2.050;2023-12-20T07:48:21;18.15;;;6.25;;
81934;SDS011;71405;47.674;-2.050;2023-12-20T07:50:47;20.95;;;5.78;;
81934;SDS011;71405;47.674;-2.050;2023-12-20T07:53:12;20.20;;;5.88;;
81934;SDS011;71405;47.674;-2.050;2023-12-20T07:55:38;19.42;;;5.85;;
81934;SDS011;71405;47.674;-2.050;2023-12-20T07:58:04;15.45;;;5.35;;
81934;SDS011;71405;47.674;-2.050;2023-12-20T08:00:30;12.85;;;4.82;;
81934;SDS011;71405;47.674;-2.050;2023-12-20T08:02:56;20.05;;;5.47;;
81934;SDS011;71405;47.674;-2.050;2023-12-20T08:05:21;17.92;;;5.35;;
81934;SDS011;71405;47.674;-2.050;2023-12-20T08:07:47;15.02;;;4.90;;
81934;SDS011;71405;47.674;-2.050;2023-12-20T08:10:13;19.73;;;5.10;;
81934;SDS011;71405;47.674;-2.050;2023-12-20T08:12:38;16.75;;;5.03;;
81934;SDS011;71405;47.674;-2.050;2023-12-20T08:15:05;14.32;;;4.82;;
81934;SDS011;71405;47.674;-2.050;2023-12-20T08:17:31;14.20;;;4.57;;
81934;SDS011;71405;47.674;-2.050;2023-12-20T08:19:56;10.43;;;3.88;;
81934;SDS011;71405;47.674;-2.050;2023-12-20T08:22:22;14.05;;;4.60;;
81934;SDS011;71405;47.674;-2.050;2023-12-20T08:24:48;12.88;;;3.92;;
81934;SDS011;71405;47.674;-2.050;2023-12-20T08:27:14;13.90;;;4.25;;
81934;SDS011;71405;47.674;-2.050;2023-12-20T08:29:39;14.38;;;5.00;;
81934;SDS011;71405;47.674;-2.050;2023-12-20T08:32:05;12.07;;;4.07;;
81934;SDS011;71405;47.674;-2.050;2023-12-20T08:34:31;12.68;;;4.03;;
81934;SDS011;71405;47.674;-2.050;2023-12-20T08:36:56;11.93;;;4.05;;
81934;SDS011;71405;47.674;-2.050;2023-12-20T08:39:22;11.45;;;4.10;;
81934;SDS011;71405;47.674;-2.050;2023-12-20T08:41:48;12.75;;;3.83;;
81934;SDS011;71405;47.674;-2.050;2023-12-20T08:44:13;11.68;;;3.90;;
81934;SDS011;71405;47.674;-2.050;2023-12-20T08:46:39;11.45;;;4.00;;
81934;SDS011;71405;47.674;-2.050;2023-12-20T08:49:05;8.80;;;3.33;;
81934;SDS011;71405;47.674;-2.050;2023-12-20T08:51:30;10.30;;;3.97;;
81934;SDS011;71405;47.674;-2.050;2023-12-20T08:53:56;11.98;;;3.72;;
81934;SDS011;71405;47.674;-2.050;2023-12-20T08:56:22;9.73;;;3.08;;
81934;SDS011;71405;47.674;-2.050;2023-12-20T08:58:47;11.20;;;3.20;;
81934;SDS011;71405;47.674;-2.050;2023-12-20T09:01:13;10.13;;;3.33;;
81934;SDS011;71405;47.674;-2.050;2023-12-20T09:03:40;8.77;;;2.83;;
81934;SDS011;71405;47.674;-2.050;2023-12-20T09:06:06;12.35;;;3.10;;
81934;SDS011;71405;47.674;-2.050;2023-12-20T09:08:32;10.95;;;3.13;;
81934;SDS011;71405;47.674;-2.050;2023-12-20T09:10:58;8.68;;;3.75;;
81934;SDS011;71405;47.674;-2.050;2023-12-20T09:13:23;10.57;;;3.55;;
81934;SDS011;71405;47.674;-2.050;2023-12-20T09:15:54;10.50;;;3.55;;
81934;SDS011;71405;47.674;-2.050;2023-12-20T09:18:20;10.48;;;3.17;;
81934;SDS011;71405;47.674;-2.050;2023-12-20T09:20:46;8.05;;;2.90;;
81934;SDS011;71405;47.674;-2.050;2023-12-20T09:23:12;10.27;;;2.95;;
81934;SDS011;71405;47.674;-2.050;2023-12-20T09:25:37;7.18;;;2.70;;
81934;SDS011;71405;47.674;-2.050;2023-12-20T09:28:03;9.40;;;2.90;;
81934;SDS011;71405;47.674;-2.050;2023-12-20T09:30:29;9.93;;;3.17;;
81934;SDS011;71405;47.674;-2.050;2023-12-20T09:32:55;9.57;;;3.25;;
81934;SDS011;71405;47.674;-2.050;2023-12-20T09:35:20;9.05;;;2.72;;
81934;SDS011;71405;47.674;-2.050;2023-12-20T09:37:48;9.90;;;2.47;;
81934;SDS011;71405;47.674;-2.050;2023-12-20T09:40:14;11.27;;;2.95;;
81934;SDS011;71405;47.674;-2.050;2023-12-20T09:42:57;8.73;;;2.92;;
81934;SDS011;71405;47.674;-2.050;2023-12-20T09:45:24;8.73;;;2.80;;
81934;SDS011;71405;47.674;-2.050;2023-12-20T09:47:50;7.50;;;2.80;;
81934;SDS011;71405;47.674;-2.050;2023-12-20T09:50:18;8.77;;;2.85;;
81934;SDS011;71405;47.674;-2.050;2023-12-20T09:52:46;8.85;;;2.92;;
81934;SDS011;71405;47.674;-2.050;2023-12-20T09:55:15;7.05;;;2.70;;
81934;SDS011;71405;47.674;-2.050;2023-12-20T09:57:45;8.63;;;2.97;;
81934;SDS011;71405;47.674;-2.050;2023-12-20T10:00:11;7.72;;;2.55;;
81934;SDS011;71405;47.674;-2.050;2023-12-20T10:02:56;8.10;;;2.75;;
81934;SDS011;71405;47.674;-2.050;2023-12-20T10:05:30;9.88;;;2.60;;
81934;SDS011;71405;47.674;-2.050;2023-12-20T10:07:57;7.22;;;2.92;;
81934;SDS011;71405;47.674;-2.050;2023-12-20T10:10:24;7.97;;;2.53;;
81934;SDS011;71405;47.674;-2.050;2023-12-20T10:15:28;6.95;;;2.38;;
81934;SDS011;71405;47.674;-2.050;2023-12-20T10:17:54;7.20;;;2.65;;
81934;SDS011;71405;47.674;-2.050;2023-12-20T10:20:20;7.53;;;2.78;;
81934;SDS011;71405;47.674;-2.050;2023-12-20T10:22:46;6.53;;;2.15;;
81934;SDS011;71405;47.674;-2.050;2023-12-20T10:25:12;5.90;;;2.30;;
81934;SDS011;71405;47.674;-2.050;2023-12-20T10:27:38;7.47;;;2.65;;
81934;SDS011;71405;47.674;-2.050;2023-12-20T10:30:03;7.07;;;2.30;;
81934;SDS011;71405;47.674;-2.050;2023-12-20T10:32:30;6.05;;;2.30;;
81934;SDS011;71405;47.674;-2.050;2023-12-20T10:34:56;6.60;;;2.17;;
81934;SDS011;71405;47.674;-2.050;2023-12-20T10:37:22;5.65;;;2.15;;
81934;SDS011;71405;47.674;-2.050;2023-12-20T10:39:51;7.13;;;2.40;;
81934;SDS011;71405;47.674;-2.050;2023-12-20T10:42:21;6.93;;;2.78;;
81934;SDS011;71405;47.674;-2.050;2023-12-20T10:44:47;6.65;;;2.88;;
81934;SDS011;71405;47.674;-2.050;2023-12-20T10:47:14;7.68;;;2.40;;
81934;SDS011;71405;47.674;-2.050;2023-12-20T10:49:41;7.20;;;2.70;;
81934;SDS011;71405;47.674;-2.050;2023-12-20T10:52:07;5.95;;;2.45;;
81934;SDS011;71405;47.674;-2.050;2023-12-20T10:54:34;6.97;;;2.35;;
81934;SDS011;71405;47.674;-2.050;2023-12-20T10:56:59;6.55;;;2.28;;
81934;SDS011;71405;47.674;-2.050;2023-12-20T10:59:29;6.57;;;2.35;;
81934;SDS011;71405;47.674;-2.050;2023-12-20T11:02:08;7.78;;;2.25;;
81934;SDS011;71405;47.674;-2.050;2023-12-20T11:05:10;6.47;;;2.13;;
81934;SDS011;71405;47.674;-2.050;2023-12-20T11:08:46;5.72;;;1.88;;
81934;SDS011;71405;47.674;-2.050;2023-12-20T11:18:50;5.82;;;1.83;;
81934;SDS011;71405;47.674;-2.050;2023-12-20T11:21:16;5.78;;;2.00;;
81934;SDS011;71405;47.674;-2.050;2023-12-20T11:23:42;6.35;;;2.00;;
81934;SDS011;71405;47.674;-2.050;2023-12-20T11:26:08;5.07;;;1.90;;
81934;SDS011;71405;47.674;-2.050;2023-12-20T11:28:34;5.95;;;1.92;;
81934;SDS011;71405;47.674;-2.050;2023-12-20T11:31:00;4.70;;;1.90;;
81934;SDS011;71405;47.674;-2.050;2023-12-20T11:33:30;5.45;;;1.90;;
81934;SDS011;71405;47.674;-2.050;2023-12-20T11:36:01;5.97;;;1.98;;
81934;SDS011;71405;47.674;-2.050;2023-12-20T11:38:27;6.53;;;2.25;;
81934;SDS011;71405;47.674;-2.050;2023-12-20T11:41:02;6.45;;;2.13;;
81934;SDS011;71405;47.674;-2.050;2023-12-20T11:43:37;5.47;;;2.15;;
81934;SDS011;71405;47.674;-2.050;2023-12-20T11:46:07;5.10;;;2.15;;
81934;SDS011;71405;47.674;-2.050;2023-12-20T11:48:37;7.40;;;2.38;;
81934;SDS011;71405;47.674;-2.050;2023-12-20T11:51:10;5.32;;;1.80;;
81934;SDS011;71405;47.674;-2.050;2023-12-20T11:53:37;5.80;;;2.22;;
81934;SDS011;71405;47.674;-2.050;2023-12-20T11:56:04;7.28;;;2.20;;
81934;SDS011;71405;47.674;-2.050;2023-12-20T11:58:33;5.82;;;1.80;;
81934;SDS011;71405;47.674;-2.050;2023-12-20T12:00:59;5.35;;;2.03;;
81934;SDS011;71405;47.674;-2.050;2023-12-20T12:03:27;6.25;;;1.90;;
81934;SDS011;71405;47.674;-2.050;2023-12-20T12:05:53;7.28;;;2.22;;
81934;SDS011;71405;47.674;-2.050;2023-12-20T12:08:18;6.65;;;2.17;;
81934;SDS011;71405;47.674;-2.050;2023-12-20T12:10:44;5.65;;;1.92;;
81934;SDS011;71405;47.674;-2.050;2023-12-20T12:13:10;7.43;;;1.70;;
81934;SDS011;71405;47.674;-2.050;2023-12-20T12:15:37;5.13;;;2.00;;
81934;SDS011;71405;47.674;-2.050;2023-12-20T12:18:03;4.13;;;1.50;;
81934;SDS011;71405;47.674;-2.050;2023-12-20T12:20:30;4.55;;;1.77;;
81934;SDS011;71405;47.674;-2.050;2023-12-20T12:23:02;5.15;;;1.70;;
81934;SDS011;71405;47.674;-2.050;2023-12-20T12:25:30;8.15;;;1.95;;
81934;SDS011;71405;47.674;-2.050;2023-12-20T12:27:58;4.82;;;1.67;;
81934;SDS011;71405;47.674;-2.050;2023-12-20T12:30:24;4.07;;;1.40;;
81934;SDS011;71405;47.674;-2.050;2023-12-20T12:32:50;6.82;;;1.90;;
81934;SDS011;71405;47.674;-2.050;2023-12-20T12:35:17;6.70;;;1.73;;
81934;SDS011;71405;47.674;-2.050;2023-12-20T12:37:44;6.88;;;2.17;;
81934;SDS011;71405;47.674;-2.050;2023-12-20T12:40:10;4.57;;;1.65;;
81934;SDS011;71405;47.674;-2.050;2023-12-20T12:42:37;5.35;;;1.75;;
81934;SDS011;71405;47.674;-2.050;2023-12-20T12:45:03;5.05;;;1.65;;
81934;SDS011;71405;47.674;-2.050;2023-12-20T12:47:29;6.32;;;2.08;;
81934;SDS011;71405;47.674;-2.050;2023-12-20T12:49:55;5.07;;;1.77;;
81934;SDS011;71405;47.674;-2.050;2023-12-20T12:52:21;6.57;;;2.00;;
81934;SDS011;71405;47.674;-2.050;2023-12-20T12:54:47;6.18;;;1.80;;
81934;SDS011;71405;47.674;-2.050;2023-12-20T12:57:14;6.43;;;1.80;;
81934;SDS011;71405;47.674;-2.050;2023-12-20T12:59:43;6.13;;;1.55;;
81934;SDS011;71405;47.674;-2.050;2023-12-20T13:02:11;4.57;;;1.60;;
81934;SDS011;71405;47.674;-2.050;2023-12-20T13:04:42;5.90;;;1.80;;
81934;SDS011;71405;47.674;-2.050;2023-12-20T13:07:08;6.20;;;1.90;;
81934;SDS011;71405;47.674;-2.050;2023-12-20T13:09:37;5.60;;;1.63;;
81934;SDS011;71405;47.674;-2.050;2023-12-20T13:12:04;3.78;;;1.42;;
81934;SDS011;71405;47.674;-2.050;2023-12-20T13:14:32;5.05;;;1.70;;
81934;SDS011;71405;47.674;-2.050;2023-12-20T13:16:59;5.15;;;1.83;;
81934;SDS011;71405;47.674;-2.050;2023-12-20T13:19:26;2.50;;;1.20;;
81934;SDS011;71405;47.674;-2.050;2023-12-20T13:21:51;4.63;;;1.65;;
81934;SDS011;71405;47.674;-2.050;2023-12-20T13:24:17;3.17;;;1.42;;
81934;SDS011;71405;47.674;-2.050;2023-12-20T13:26:43;5.03;;;1.95;;
81934;SDS011;71405;47.674;-2.050;2023-12-20T13:29:09;4.72;;;1.50;;
81934;SDS011;71405;47.674;-2.050;2023-12-20T13:31:35;3.90;;;1.50;;
81934;SDS011;71405;47.674;-2.050;2023-12-20T13:34:01;5.63;;;1.70;;
81934;SDS011;71405;47.674;-2.050;2023-12-20T13:36:27;5.18;;;1.60;;
81934;SDS011;71405;47.674;-2.050;2023-12-20T13:38:53;4.07;;;1.30;;
81934;SDS011;71405;47.674;-2.050;2023-12-20T13:41:19;4.97;;;1.42;;
81934;SDS011;71405;47.674;-2.050;2023-12-20T13:43:45;4.18;;;1.55;;
81934;SDS011;71405;47.674;-2.050;2023-12-20T13:46:10;4.82;;;1.52;;
81934;SDS011;71405;47.674;-2.050;2023-12-20T13:48:36;5.03;;;1.40;;
81934;SDS011;71405;47.674;-2.050;2023-12-20T13:51:03;5.35;;;1.60;;
81934;SDS011;71405;47.674;-2.050;2023-12-20T13:53:28;5.18;;;1.60;;
81934;SDS011;71405;47.674;-2.050;2023-12-20T13:55:54;3.80;;;1.42;;
81934;SDS011;71405;47.674;-2.050;2023-12-20T13:58:20;4.32;;;1.58;;
81934;SDS011;71405;47.674;-2.050;2023-12-20T14:00:45;4.63;;;1.25;;
81934;SDS011;71405;47.674;-2.050;2023-12-20T14:03:11;4.78;;;1.30;;
81934;SDS011;71405;47.674;-2.050;2023-12-20T14:05:37;4.32;;;1.30;;
81934;SDS011;71405;47.674;-2.050;2023-12-20T14:08:02;4.65;;;1.40;;
81934;SDS011;71405;47.674;-2.050;2023-12-20T14:10:28;3.88;;;1.30;;
81934;SDS011;71405;47.674;-2.050;2023-12-20T14:12:55;2.92;;;1.10;;
81934;SDS011;71405;47.674;-2.050;2023-12-20T14:15:21;4.35;;;1.10;;
81934;SDS011;71405;47.674;-2.050;2023-12-20T14:17:50;5.88;;;1.48;;
81934;SDS011;71405;47.674;-2.050;2023-12-20T14:20:16;6.20;;;1.55;;
81934;SDS011;71405;47.674;-2.050;2023-12-20T14:22:41;4.00;;;1.38;;
81934;SDS011;71405;47.674;-2.050;2023-12-20T14:25:11;5.32;;;1.30;;
81934;SDS011;71405;47.674;-2.050;2023-12-20T14:27:38;3.30;;;1.30;;
81934;SDS011;71405;47.674;-2.050;2023-12-20T14:30:04;6.22;;;1.60;;
81934;SDS011;71405;47.674;-2.050;2023-12-20T14:32:31;4.03;;;1.10;;
81934;SDS011;71405;47.674;-2.050;2023-12-20T14:34:57;3.95;;;1.33;;
81934;SDS011;71405;47.674;-2.050;2023-12-20T14:37:22;5.60;;;1.77;;
81934;SDS011;71405;47.674;-2.050;2023-12-20T14:39:48;4.18;;;1.27;;